createdAt,value
2019-02-14T00:00:20.477Z,99.90
2019-02-14T00:02:49.701Z,99.90
2019-02-14T00:05:18.916Z,99.90
2019-02-14T00:07:48.167Z,99.90
2019-02-14T00:10:17.372Z,99.90
2019-02-14T00:12:46.543Z,99.90
2019-02-14T00:15:15.860Z,99.90
2019-02-14T00:17:45.113Z,99.90
2019-02-14T00:20:14.339Z,99.90
2019-02-14T00:22:43.532Z,99.90
2019-02-14T00:25:12.820Z,99.90
2019-02-14T00:27:42.043Z,99.90
2019-02-14T00:30:11.440Z,99.90
2019-02-14T00:32:40.717Z,99.90
2019-02-14T00:35:10.005Z,99.90
2019-02-14T00:37:39.225Z,99.90
2019-02-14T00:40:08.497Z,99.90
2019-02-14T00:42:37.694Z,99.90
2019-02-14T00:45:07.056Z,99.90
2019-02-14T00:47:36.378Z,99.90
2019-02-14T00:50:05.689Z,99.90
2019-02-14T00:52:35.008Z,99.90
2019-02-14T00:55:04.719Z,99.90
2019-02-14T00:57:33.936Z,99.90
2019-02-14T01:00:03.223Z,99.90
2019-02-14T01:02:32.456Z,99.90
2019-02-14T01:05:01.680Z,99.90
2019-02-14T01:07:30.936Z,99.90
2019-02-14T01:10:00.296Z,99.90
2019-02-14T01:12:29.680Z,99.90
2019-02-14T01:14:58.951Z,99.90
2019-02-14T01:17:28.280Z,99.90
2019-02-14T01:19:57.559Z,99.90
2019-02-14T01:22:26.801Z,99.90
2019-02-14T01:24:56.032Z,99.90
2019-02-14T01:27:25.220Z,99.90
2019-02-14T01:29:54.460Z,99.90
2019-02-14T01:32:23.960Z,99.90
2019-02-14T01:34:53.207Z,99.90
2019-02-14T01:37:22.431Z,99.90
2019-02-14T01:39:51.645Z,99.90
2019-02-14T01:42:20.987Z,99.90
2019-02-14T01:44:50.268Z,99.90
2019-02-14T01:47:19.500Z,99.90
2019-02-14T01:49:48.742Z,99.90
2019-02-14T01:52:17.929Z,99.90
2019-02-14T01:54:47.148Z,99.90
2019-02-14T01:57:16.400Z,99.90
2019-02-14T01:59:45.621Z,99.90
2019-02-14T02:02:14.797Z,99.90
2019-02-14T02:04:44.009Z,99.90
2019-02-14T02:07:13.295Z,99.90
2019-02-14T02:09:42.815Z,99.90
2019-02-14T02:12:12.053Z,99.90
2019-02-14T02:14:41.252Z,99.90
2019-02-14T02:17:10.433Z,99.90
2019-02-14T02:19:39.660Z,99.90
2019-02-14T02:22:08.854Z,99.90
2019-02-14T02:24:38.070Z,99.90
2019-02-14T02:27:07.268Z,99.90
2019-02-14T02:29:36.448Z,99.90
2019-02-14T02:32:05.772Z,99.90
2019-02-14T02:34:34.964Z,99.90
2019-02-14T02:37:04.165Z,99.90
2019-02-14T02:39:33.392Z,99.90
2019-02-14T02:42:02.636Z,99.90
2019-02-14T02:44:32.195Z,99.90
2019-02-14T02:47:01.430Z,99.90
2019-02-14T02:49:30.693Z,99.90
2019-02-14T02:51:59.929Z,99.90
2019-02-14T02:54:29.147Z,99.90
2019-02-14T02:56:58.356Z,99.90
2019-02-14T02:59:27.564Z,99.90
2019-02-14T03:01:56.752Z,99.90
2019-02-14T03:04:25.903Z,99.90
2019-02-14T03:06:55.089Z,99.90
2019-02-14T03:09:24.323Z,99.90
2019-02-14T03:11:53.515Z,99.90
2019-02-14T03:14:23.171Z,99.90
2019-02-14T03:16:52.480Z,99.90
2019-02-14T03:19:21.655Z,99.90
2019-02-14T03:21:50.779Z,99.90
2019-02-14T03:24:19.967Z,99.90
2019-02-14T03:26:49.224Z,99.90
2019-02-14T03:29:18.423Z,99.90
2019-02-14T03:31:47.615Z,99.90
2019-02-14T03:34:16.915Z,99.90
2019-02-14T03:36:46.124Z,99.90
2019-02-14T03:39:15.328Z,99.90
2019-02-14T03:41:44.515Z,99.90
2019-02-14T03:44:13.737Z,99.90
2019-02-14T03:46:43.067Z,99.90
2019-02-14T03:49:12.340Z,99.90
2019-02-14T03:51:41.555Z,99.90
2019-02-14T03:54:10.772Z,99.90
2019-02-14T03:56:40.005Z,99.90
2019-02-14T03:59:09.187Z,99.90
2019-02-14T04:01:38.385Z,99.90
2019-02-14T04:04:07.657Z,99.90
2019-02-14T04:06:36.873Z,99.90
2019-02-14T04:09:07.940Z,99.90
2019-02-14T04:11:37.179Z,99.90
2019-02-14T04:14:06.420Z,99.90
2019-02-14T04:16:35.609Z,99.90
2019-02-14T04:19:04.952Z,99.90
2019-02-14T04:21:34.165Z,99.90
2019-02-14T04:24:03.412Z,99.90
2019-02-14T04:26:32.652Z,99.90
2019-02-14T04:29:01.849Z,99.90
2019-02-14T04:31:31.161Z,99.90
2019-02-14T04:34:00.463Z,99.90
2019-02-14T04:36:35.833Z,99.90
2019-02-14T04:39:00.576Z,99.90
2019-02-14T04:41:29.816Z,99.90
2019-02-14T04:43:59.067Z,99.90
2019-02-14T04:46:28.287Z,99.90
2019-02-14T04:48:57.561Z,99.90
2019-02-14T04:51:26.772Z,99.90
2019-02-14T04:53:55.991Z,99.90
2019-02-14T04:56:25.212Z,99.90
2019-02-14T04:58:54.448Z,99.90
2019-02-14T05:01:23.672Z,99.90
2019-02-14T05:03:52.898Z,99.90
2019-02-14T05:06:22.132Z,99.90
2019-02-14T05:08:51.350Z,99.90
2019-02-14T05:11:20.584Z,99.90
2019-02-14T05:13:49.819Z,99.90
2019-02-14T05:16:19.021Z,99.90
2019-02-14T05:18:48.344Z,99.90
2019-02-14T05:21:17.530Z,99.90
2019-02-14T05:23:46.758Z,99.90
2019-02-14T05:26:16.047Z,99.90
2019-02-14T05:28:45.280Z,99.90
2019-02-14T05:31:14.511Z,99.90
2019-02-14T05:33:43.766Z,99.90
2019-02-14T05:36:12.992Z,99.90
2019-02-14T05:38:42.219Z,99.90
2019-02-14T05:41:11.436Z,99.90
2019-02-14T05:43:40.678Z,99.90
2019-02-14T05:46:09.932Z,99.90
2019-02-14T05:48:39.231Z,99.90
2019-02-14T05:51:08.477Z,99.90
2019-02-14T05:53:37.681Z,99.90
2019-02-14T05:56:06.904Z,99.90
2019-02-14T05:58:36.100Z,99.90
2019-02-14T06:01:05.620Z,99.90
2019-02-14T06:03:34.828Z,99.90
2019-02-14T06:06:04.104Z,99.90
2019-02-14T06:08:33.367Z,99.90
2019-02-14T06:11:02.645Z,99.90
2019-02-14T06:13:31.908Z,99.90
2019-02-14T06:16:01.104Z,99.90
2019-02-14T06:18:30.385Z,99.90
2019-02-14T06:20:59.621Z,99.90
2019-02-14T06:23:30.139Z,99.90
2019-02-14T06:25:59.491Z,99.90
2019-02-14T06:28:28.751Z,99.90
2019-02-14T06:30:58.048Z,99.90
2019-02-14T06:33:27.286Z,99.90
2019-02-14T06:35:56.512Z,99.90
2019-02-14T06:38:25.789Z,99.90
2019-02-14T06:40:54.986Z,99.90
2019-02-14T06:43:24.289Z,99.90
2019-02-14T06:45:53.632Z,99.90
2019-02-14T06:48:22.961Z,99.90
2019-02-14T06:50:52.170Z,99.90
2019-02-14T06:53:21.468Z,99.90
2019-02-14T06:55:50.692Z,99.90
2019-02-14T06:58:19.993Z,99.90
2019-02-14T07:00:49.305Z,99.90
2019-02-14T07:03:18.565Z,99.90
2019-02-14T07:05:47.781Z,99.90
2019-02-14T07:08:17.025Z,99.90
2019-02-14T07:10:46.416Z,99.90
2019-02-14T07:13:15.687Z,99.90
2019-02-14T07:15:44.928Z,99.90
2019-02-14T07:18:14.184Z,99.90
2019-02-14T07:20:43.392Z,99.90
2019-02-14T07:23:12.711Z,99.90
2019-02-14T07:25:41.922Z,99.90
2019-02-14T07:28:11.080Z,99.90
2019-02-14T07:30:40.349Z,99.90
2019-02-14T07:33:09.572Z,99.90
2019-02-14T07:35:38.863Z,99.90
2019-02-14T07:38:08.207Z,99.90
2019-02-14T07:40:37.434Z,99.90
2019-02-14T07:43:06.669Z,99.90
2019-02-14T07:45:35.957Z,99.90
2019-02-14T07:48:05.303Z,99.90
2019-02-14T07:50:34.520Z,99.90
2019-02-14T07:53:03.788Z,99.90
2019-02-14T07:55:33.080Z,99.90
2019-02-14T07:58:02.293Z,99.90
2019-02-14T08:00:31.519Z,99.90
2019-02-14T08:03:00.742Z,99.90
2019-02-14T08:05:30.116Z,99.90
2019-02-14T08:08:00.674Z,99.90
2019-02-14T08:10:30.094Z,99.90
2019-02-14T08:12:59.420Z,99.90
2019-02-14T08:15:28.704Z,99.90
2019-02-14T08:17:57.960Z,99.90
2019-02-14T08:20:27.152Z,99.90
2019-02-14T08:22:56.457Z,99.90
2019-02-14T08:25:25.905Z,99.90
2019-02-14T08:27:55.140Z,99.90
2019-02-14T08:30:24.456Z,99.90
2019-02-14T08:32:53.677Z,99.90
2019-02-14T08:35:22.990Z,99.90
2019-02-14T08:37:53.890Z,99.90
2019-02-14T08:40:24.537Z,99.90
2019-02-14T08:42:53.771Z,99.90
2019-02-14T08:45:23.038Z,99.90
2019-02-14T08:47:52.342Z,99.90
2019-02-14T08:50:21.566Z,99.90
2019-02-14T08:52:51.620Z,99.90
2019-02-14T08:55:20.882Z,99.90
2019-02-14T08:57:50.136Z,99.90
2019-02-14T09:00:19.317Z,99.20
2019-02-14T09:02:48.552Z,95.20
2019-02-14T09:05:17.867Z,94.50
2019-02-14T09:07:54.260Z,92.40
2019-02-14T09:10:18.269Z,91.00
2019-02-14T09:12:47.556Z,90.80
2019-02-14T09:15:16.937Z,90.10
2019-02-14T09:17:46.356Z,88.10
2019-02-14T09:20:15.596Z,87.20
2019-02-14T09:22:44.819Z,82.80
2019-02-14T09:25:14.116Z,82.00
2019-02-14T09:27:43.486Z,83.00
2019-02-14T09:30:12.802Z,84.70
2019-02-14T09:32:42.057Z,81.10
2019-02-14T09:35:12.842Z,81.30
2019-02-14T09:37:42.100Z,81.00
2019-02-14T09:40:12.078Z,78.30
2019-02-14T09:42:41.390Z,78.50
2019-02-14T09:45:11.273Z,80.40
2019-02-14T09:47:40.557Z,81.90
2019-02-14T09:50:10.888Z,79.00
2019-02-14T09:52:40.764Z,79.00
2019-02-14T09:55:10.993Z,80.20
2019-02-14T09:57:40.317Z,80.80
2019-02-14T10:00:12.442Z,78.80
2019-02-14T10:02:41.689Z,79.60
2019-02-14T10:05:12.841Z,77.90
2019-02-14T10:07:42.198Z,78.50
2019-02-14T10:10:14.231Z,75.30
2019-02-14T10:12:43.412Z,74.20
2019-02-14T10:15:12.816Z,74.10
2019-02-14T10:17:42.166Z,72.30
2019-02-14T10:20:13.500Z,74.80
2019-02-14T10:22:42.806Z,74.90
2019-02-14T10:25:12.349Z,75.10
2019-02-14T10:27:41.547Z,74.50
2019-02-14T10:30:16.260Z,72.60
2019-02-14T10:32:45.472Z,72.90
2019-02-14T10:35:14.721Z,72.70
2019-02-14T10:37:44.048Z,71.20
2019-02-14T10:40:14.253Z,72.70
2019-02-14T10:42:43.492Z,73.90
2019-02-14T10:45:14.866Z,74.70
2019-02-14T10:47:44.112Z,71.60
2019-02-14T10:50:13.385Z,71.90
2019-02-14T10:52:42.584Z,71.50
2019-02-14T10:55:12.457Z,71.90
2019-02-14T10:57:41.672Z,70.20
2019-02-14T11:00:18.612Z,69.80
2019-02-14T11:02:48.840Z,70.90
2019-02-14T11:05:18.484Z,68.80
2019-02-14T11:07:47.713Z,72.40
2019-02-14T11:10:16.941Z,77.30
2019-02-14T11:12:46.196Z,80.70
2019-02-14T11:15:16.746Z,82.00
2019-02-14T11:17:46.040Z,80.00
2019-02-14T11:20:15.525Z,77.20
2019-02-14T11:22:44.813Z,75.30
2019-02-14T11:25:23.332Z,73.80
2019-02-14T11:27:52.603Z,73.40
2019-02-14T11:30:21.934Z,72.90
2019-02-14T11:32:51.137Z,74.00
2019-02-14T11:35:20.378Z,73.50
2019-02-14T11:37:49.624Z,71.20
2019-02-14T11:40:21.355Z,69.60
2019-02-14T11:42:50.572Z,68.90
2019-02-14T11:45:20.145Z,67.20
2019-02-14T11:47:49.385Z,68.40
2019-02-14T11:50:18.604Z,68.90
2019-02-14T11:52:47.908Z,68.40
2019-02-14T11:55:17.142Z,70.10
2019-02-14T11:57:46.371Z,67.80
2019-02-14T12:00:23.144Z,67.70
2019-02-14T12:02:55.586Z,67.80
2019-02-14T12:05:23.205Z,69.90
2019-02-14T12:07:52.424Z,70.00
2019-02-14T12:10:21.628Z,71.60
2019-02-14T12:12:50.852Z,74.60
2019-02-14T12:15:20.244Z,74.30
2019-02-14T12:17:49.454Z,73.60
2019-02-14T12:20:18.660Z,77.90
2019-02-14T12:22:47.956Z,77.50
2019-02-14T12:25:17.222Z,80.10
2019-02-14T12:27:46.477Z,81.50
2019-02-14T12:30:15.904Z,82.60
2019-02-14T12:32:45.208Z,81.20
2019-02-14T12:35:14.459Z,82.40
2019-02-14T12:37:43.710Z,81.60
2019-02-14T12:40:13.166Z,81.70
2019-02-14T12:42:42.344Z,82.30
2019-02-14T12:45:20.326Z,81.90
2019-02-14T12:47:45.972Z,79.80
2019-02-14T12:50:15.254Z,83.20
2019-02-14T12:52:44.587Z,82.80
2019-02-14T12:55:13.811Z,82.00
2019-02-14T12:57:43.081Z,82.70
2019-02-14T13:00:15.679Z,82.90
2019-02-14T13:02:44.935Z,78.60
2019-02-14T13:05:14.145Z,80.20
2019-02-14T13:07:43.374Z,78.00
2019-02-14T13:10:12.913Z,77.10
2019-02-14T13:12:42.119Z,77.20
2019-02-14T13:15:13.942Z,77.70
2019-02-14T13:17:45.845Z,79.50
2019-02-14T13:20:16.199Z,80.10
2019-02-14T13:22:46.771Z,78.10
2019-02-14T13:25:20.016Z,80.50
2019-02-14T13:27:53.436Z,79.90
2019-02-14T13:30:25.487Z,78.30
2019-02-14T13:32:56.097Z,78.70
2019-02-14T13:35:25.682Z,81.20
2019-02-14T13:37:55.251Z,82.40
2019-02-14T13:40:24.844Z,82.40
2019-02-14T13:42:54.520Z,83.70
2019-02-14T13:45:24.490Z,83.10
2019-02-14T13:47:54.069Z,82.80
2019-02-14T13:50:23.604Z,80.90
2019-02-14T13:52:53.028Z,80.40
2019-02-14T13:55:22.409Z,82.30
2019-02-14T13:57:51.953Z,82.70
2019-02-14T14:00:23.831Z,83.70
2019-02-14T14:02:53.020Z,80.30
2019-02-14T14:05:22.277Z,78.80
2019-02-14T14:07:51.528Z,82.30
2019-02-14T14:10:20.717Z,79.20
2019-02-14T14:12:50.444Z,80.00
2019-02-14T14:15:19.861Z,80.40
2019-02-14T14:17:49.244Z,77.20
2019-02-14T14:20:18.760Z,76.80
2019-02-14T14:22:48.465Z,79.10
2019-02-14T14:25:17.913Z,79.90
2019-02-14T14:27:47.449Z,78.70
2019-02-14T14:30:16.733Z,77.20
2019-02-14T14:32:46.187Z,74.90
2019-02-14T14:35:15.699Z,76.80
2019-02-14T14:37:45.077Z,74.20
2019-02-14T14:40:14.703Z,75.40
2019-02-14T14:43:06.419Z,74.30
2019-02-14T14:45:46.373Z,77.00
2019-02-14T14:48:19.485Z,73.90
2019-02-14T14:50:46.735Z,77.10
2019-02-14T14:53:15.977Z,76.80
2019-02-14T14:55:45.379Z,76.70
2019-02-14T14:58:14.794Z,73.70
2019-02-14T15:00:44.140Z,73.30
2019-02-14T15:03:13.356Z,73.50
2019-02-14T15:05:43.327Z,72.40
2019-02-14T15:08:12.585Z,71.30
2019-02-14T15:10:42.001Z,71.10
2019-02-14T15:13:11.341Z,73.50
2019-02-14T15:15:40.540Z,72.10
2019-02-14T15:18:09.780Z,71.30
2019-02-14T15:20:39.006Z,72.30
2019-02-14T15:23:08.275Z,71.20
2019-02-14T15:25:37.570Z,71.00
2019-02-14T15:28:06.878Z,72.50
2019-02-14T15:30:36.168Z,73.40
2019-02-14T15:33:05.412Z,73.90
2019-02-14T15:35:34.748Z,74.30
2019-02-14T15:38:04.098Z,74.40
2019-02-14T15:40:33.363Z,75.60
2019-02-14T15:43:02.578Z,78.30
2019-02-14T15:45:31.817Z,80.20
2019-02-14T15:48:01.092Z,79.30
2019-02-14T15:50:32.050Z,80.20
2019-02-14T15:53:01.262Z,81.50
2019-02-14T15:55:30.554Z,82.00
2019-02-14T15:57:59.892Z,83.60
2019-02-14T16:00:30.676Z,85.10
2019-02-14T16:03:00.251Z,85.00
2019-02-14T16:05:29.472Z,85.60
2019-02-14T16:08:00.498Z,85.50
2019-02-14T16:10:30.004Z,85.90
2019-02-14T16:13:00.074Z,86.80
2019-02-14T16:15:31.079Z,86.80
2019-02-14T16:18:01.639Z,86.60
2019-02-14T16:20:31.289Z,88.50
2019-02-14T16:23:00.696Z,88.90
2019-02-14T16:25:30.321Z,89.90
2019-02-14T16:28:00.057Z,90.70
2019-02-14T16:30:31.108Z,90.30
2019-02-14T16:33:01.059Z,90.90
2019-02-14T16:35:30.580Z,91.60
2019-02-14T16:37:59.825Z,92.20
2019-02-14T16:40:38.247Z,92.30
2019-02-14T16:43:00.837Z,92.50
2019-02-14T16:45:30.153Z,92.60
2019-02-14T16:47:59.395Z,92.90
2019-02-14T16:50:28.756Z,92.90
2019-02-14T16:52:58.010Z,92.90
2019-02-14T16:55:27.240Z,93.20
2019-02-14T16:57:56.488Z,93.60
2019-02-14T17:00:25.745Z,94.40
2019-02-14T17:02:54.930Z,94.40
2019-02-14T17:05:24.175Z,94.40
2019-02-14T17:07:53.362Z,94.90
2019-02-14T17:10:22.877Z,95.10
2019-02-14T17:12:52.254Z,95.60
2019-02-14T17:15:21.580Z,96.40
2019-02-14T17:17:50.773Z,97.40
2019-02-14T17:20:20.171Z,98.40
2019-02-14T17:22:49.393Z,98.20
2019-02-14T17:25:18.576Z,98.10
2019-02-14T17:27:47.893Z,97.90
2019-02-14T17:30:17.116Z,98.10
2019-02-14T17:32:46.324Z,98.20
2019-02-14T17:35:15.571Z,98.00
2019-02-14T17:37:47.260Z,97.90
2019-02-14T17:40:16.502Z,98.00
2019-02-14T17:42:46.939Z,98.20
2019-02-14T17:45:17.072Z,98.20
2019-02-14T17:47:47.342Z,98.10
2019-02-14T17:50:16.935Z,98.20
2019-02-14T17:52:46.383Z,98.40
2019-02-14T17:55:16.207Z,99.10
2019-02-14T17:57:46.055Z,99.90
2019-02-14T18:00:15.917Z,99.90
2019-02-14T18:02:46.136Z,99.90
2019-02-14T18:05:16.043Z,99.90
2019-02-14T18:07:46.240Z,99.90
2019-02-14T18:10:15.983Z,99.90
2019-02-14T18:12:45.850Z,99.90
2019-02-14T18:15:15.468Z,99.90
2019-02-14T18:17:45.729Z,99.90
2019-02-14T18:20:14.947Z,99.90
2019-02-14T18:22:44.276Z,99.90
2019-02-14T18:25:13.604Z,99.90
2019-02-14T18:27:42.797Z,99.90
2019-02-14T18:30:13.128Z,99.90
2019-02-14T18:32:42.388Z,99.90
2019-02-14T18:35:11.582Z,99.90
2019-02-14T18:37:40.864Z,99.90
2019-02-14T18:40:10.544Z,99.90
2019-02-14T18:42:40.724Z,99.90
2019-02-14T18:45:12.023Z,99.90
2019-02-14T18:47:41.242Z,99.90
2019-02-14T18:50:11.129Z,99.90
2019-02-14T18:52:40.345Z,99.90
2019-02-14T18:55:09.760Z,99.90
2019-02-14T18:57:39.016Z,99.90
2019-02-14T19:00:10.851Z,99.90
2019-02-14T19:02:40.159Z,99.90
2019-02-14T19:05:10.251Z,99.90
2019-02-14T19:07:39.542Z,99.90
2019-02-14T19:10:10.452Z,99.90
2019-02-14T19:12:39.667Z,99.90
2019-02-14T19:15:09.740Z,99.90
2019-02-14T19:17:38.985Z,99.90
2019-02-14T19:20:08.893Z,99.90
2019-02-14T19:22:38.293Z,99.90
2019-02-14T19:25:13.472Z,99.90
2019-02-14T19:27:42.721Z,99.90
2019-02-14T19:30:11.966Z,99.90
2019-02-14T19:32:41.173Z,99.90
2019-02-14T19:35:10.430Z,99.90
2019-02-14T19:37:40.199Z,99.90
2019-02-14T19:40:09.399Z,99.90
2019-02-14T19:42:38.853Z,99.90
2019-02-14T19:45:08.861Z,99.90
2019-02-14T19:47:38.255Z,99.90
2019-02-14T19:50:08.737Z,99.90
2019-02-14T19:52:38.288Z,99.90
2019-02-14T19:55:08.146Z,99.90
2019-02-14T19:57:37.423Z,99.90
2019-02-14T20:00:08.347Z,99.90
2019-02-14T20:02:37.628Z,99.90
2019-02-14T20:05:07.887Z,99.90
2019-02-14T20:07:37.075Z,99.90
2019-02-14T20:10:07.368Z,99.90
2019-02-14T20:12:36.724Z,99.90
2019-02-14T20:15:07.725Z,99.90
2019-02-14T20:17:37.531Z,99.90
2019-02-14T20:20:08.172Z,99.90
2019-02-14T20:22:37.372Z,99.90
2019-02-14T20:25:07.508Z,99.90
2019-02-14T20:27:36.738Z,99.90
2019-02-14T20:30:06.686Z,99.90
2019-02-14T20:32:35.908Z,99.90
2019-02-14T20:35:05.289Z,99.90
2019-02-14T20:37:34.590Z,99.90
2019-02-14T20:40:05.529Z,99.90
2019-02-14T20:42:34.752Z,99.90
2019-02-14T20:45:04.168Z,99.90
2019-02-14T20:47:33.439Z,99.90
2019-02-14T20:50:02.721Z,99.90
2019-02-14T20:52:31.944Z,99.90
2019-02-14T20:55:01.248Z,99.90
2019-02-14T20:57:30.545Z,99.90
2019-02-14T20:59:59.954Z,99.90
2019-02-14T21:02:29.494Z,99.90
2019-02-14T21:04:59.016Z,99.90
2019-02-14T21:07:28.305Z,99.90
2019-02-14T21:09:57.724Z,99.90
2019-02-14T21:12:26.921Z,99.90
2019-02-14T21:14:56.140Z,99.90
2019-02-14T21:17:25.398Z,99.90
2019-02-14T21:19:54.609Z,99.90
2019-02-14T21:22:23.892Z,99.90
2019-02-14T21:24:53.214Z,99.90
2019-02-14T21:27:22.519Z,99.90
2019-02-14T21:29:51.872Z,99.90
2019-02-14T21:32:21.288Z,99.90
2019-02-14T21:34:50.485Z,99.90
2019-02-14T21:37:19.773Z,99.90
2019-02-14T21:39:49.113Z,99.90
2019-02-14T21:42:21.734Z,99.90
2019-02-14T21:44:49.211Z,99.90
2019-02-14T21:47:18.489Z,99.90
2019-02-14T21:49:47.795Z,99.90
2019-02-14T21:52:17.079Z,99.90
2019-02-14T21:54:46.384Z,99.90
2019-02-14T21:57:15.644Z,99.90
2019-02-14T21:59:44.830Z,99.90
2019-02-14T22:02:14.059Z,99.90
2019-02-14T22:04:43.354Z,99.90
2019-02-14T22:07:12.593Z,99.90
2019-02-14T22:09:41.795Z,99.90
2019-02-14T22:12:11.017Z,99.90
2019-02-14T22:14:40.209Z,99.90
2019-02-14T22:17:09.510Z,99.90
2019-02-14T22:19:38.723Z,99.90
2019-02-14T22:22:07.909Z,99.90
2019-02-14T22:24:37.117Z,99.90
2019-02-14T22:27:06.364Z,99.90
2019-02-14T22:29:35.572Z,99.90
2019-02-14T22:32:04.772Z,99.90
2019-02-14T22:34:33.996Z,99.90
2019-02-14T22:37:03.192Z,99.90
2019-02-14T22:39:32.530Z,99.90
2019-02-14T22:42:01.791Z,99.90
2019-02-14T22:44:31.112Z,99.90
2019-02-14T22:47:00.562Z,99.90
2019-02-14T22:49:29.788Z,99.90
2019-02-14T22:51:58.989Z,99.90
2019-02-14T22:54:28.184Z,99.90
2019-02-14T22:56:57.414Z,99.90
2019-02-14T22:59:26.614Z,99.90
2019-02-14T23:01:55.923Z,99.90
2019-02-14T23:04:25.157Z,99.90
2019-02-14T23:06:54.364Z,99.90
2019-02-14T23:09:23.634Z,99.90
2019-02-14T23:11:52.860Z,99.90
2019-02-14T23:14:22.092Z,99.90
2019-02-14T23:16:51.373Z,99.90
2019-02-14T23:19:20.700Z,99.90
2019-02-14T23:21:49.896Z,99.90
2019-02-14T23:24:19.109Z,99.90
2019-02-14T23:26:48.299Z,99.90
2019-02-14T23:29:17.503Z,99.90
2019-02-14T23:31:46.676Z,99.90
2019-02-14T23:34:15.901Z,99.90
2019-02-14T23:36:45.117Z,99.90
2019-02-14T23:39:14.340Z,99.90
2019-02-14T23:41:43.608Z,99.90
2019-02-14T23:44:12.824Z,99.90
2019-02-14T23:46:42.054Z,99.90
2019-02-14T23:49:11.246Z,99.90
2019-02-14T23:51:40.435Z,99.90
2019-02-14T23:54:09.675Z,99.90
2019-02-14T23:56:38.891Z,99.90
2019-02-14T23:59:08.072Z,99.90
